sensor_id;sensor_type;location;lat;lon;timestamp;pressure;altitude;pressure_sealevel;temperature;humidity
47716;BME280;33476;50.984;3.538;2023-05-16T00:01:31;102179.50;;;11.80;60.43
47716;BME280;33476;50.984;3.538;2023-05-16T00:03:59;102180.47;;;11.76;60.41
47716;BME280;33476;50.984;3.538;2023-05-16T00:06:25;102184.06;;;11.72;60.58
47716;BME280;33476;50.984;3.538;2023-05-16T00:08:50;102179.81;;;11.70;60.61
47716;BME280;33476;50.984;3.538;2023-05-16T00:11:16;102180.75;;;11.67;60.54
47716;BME280;33476;50.984;3.538;2023-05-16T00:13:42;102182.53;;;11.65;60.72
47716;BME280;33476;50.984;3.538;2023-05-16T00:16:08;102183.56;;;11.61;60.72
47716;BME280;33476;50.984;3.538;2023-05-16T00:18:34;102183.63;;;11.58;60.63
47716;BME280;33476;50.984;3.538;2023-05-16T00:21:03;102181.00;;;11.58;60.62
47716;BME280;33476;50.984;3.538;2023-05-16T00:23:29;102181.06;;;11.57;60.69
47716;BME280;33476;50.984;3.538;2023-05-16T00:25:55;102183.69;;;11.57;60.65
47716;BME280;33476;50.984;3.538;2023-05-16T00:28:20;102188.00;;;11.59;60.59
47716;BME280;33476;50.984;3.538;2023-05-16T00:30:46;102187.25;;;11.54;60.46
47716;BME280;33476;50.984;3.538;2023-05-16T00:33:11;102182.97;;;11.51;60.67
47716;BME280;33476;50.984;3.538;2023-05-16T00:35:36;102189.94;;;11.52;60.69
47716;BME280;33476;50.984;3.538;2023-05-16T00:38:02;102183.78;;;11.53;60.78
47716;BME280;33476;50.984;3.538;2023-05-16T00:40:28;102174.19;;;11.54;60.42
47716;BME280;33476;50.984;3.538;2023-05-16T00:42:53;102179.41;;;11.54;60.57
47716;BME280;33476;50.984;3.538;2023-05-16T00:45:18;102179.50;;;11.51;60.81
47716;BME280;33476;50.984;3.538;2023-05-16T00:47:44;102180.44;;;11.48;60.84
47716;BME280;33476;50.984;3.538;2023-05-16T00:50:09;102175.31;;;11.45;60.71
47716;BME280;33476;50.984;3.538;2023-05-16T00:52:35;102175.41;;;11.42;60.80
47716;BME280;33476;50.984;3.538;2023-05-16T00:55:01;102168.50;;;11.40;60.98
47716;BME280;33476;50.984;3.538;2023-05-16T00:57:26;102175.53;;;11.38;60.83
47716;BME280;33476;50.984;3.538;2023-05-16T00:59:52;102174.69;;;11.37;61.02
47716;BME280;33476;50.984;3.538;2023-05-16T01:02:18;102179.09;;;11.35;60.89
47716;BME280;33476;50.984;3.538;2023-05-16T01:04:45;102177.41;;;11.34;60.92
47716;BME280;33476;50.984;3.538;2023-05-16T01:07:12;102173.94;;;11.34;60.81
47716;BME280;33476;50.984;3.538;2023-05-16T01:09:38;102175.72;;;11.32;60.86
47716;BME280;33476;50.984;3.538;2023-05-16T01:12:12;102170.63;;;11.27;60.81
47716;BME280;33476;50.984;3.538;2023-05-16T01:17:30;102178.75;;;11.16;61.23
47716;BME280;33476;50.984;3.538;2023-05-16T01:20:22;102180.56;;;11.14;61.04
47716;BME280;33476;50.984;3.538;2023-05-16T01:22:51;102181.94;;;11.28;60.64
47716;BME280;33476;50.984;3.538;2023-05-16T01:25:30;102178.69;;;11.19;60.39
47716;BME280;33476;50.984;3.538;2023-05-16T01:28:00;102183.22;;;11.13;60.72
47716;BME280;33476;50.984;3.538;2023-05-16T01:30:26;102182.50;;;11.08;60.91
47716;BME280;33476;50.984;3.538;2023-05-16T01:32:51;102186.91;;;11.06;61.04
47716;BME280;33476;50.984;3.538;2023-05-16T01:35:17;102184.41;;;11.03;61.10
47716;BME280;33476;50.984;3.538;2023-05-16T01:37:57;102191.56;;;10.96;61.19
47716;BME280;33476;50.984;3.538;2023-05-16T01:40:39;102189.78;;;10.96;61.08
47716;BME280;33476;50.984;3.538;2023-05-16T01:43:15;102189.00;;;10.94;61.01
47716;BME280;33476;50.984;3.538;2023-05-16T01:45:50;102189.09;;;10.90;61.04
47716;BME280;33476;50.984;3.538;2023-05-16T01:48:22;102188.25;;;10.89;61.11
47716;BME280;33476;50.984;3.538;2023-05-16T01:50:54;102196.09;;;10.89;61.51
47716;BME280;33476;50.984;3.538;2023-05-16T01:53:28;102190.09;;;10.86;61.34
47716;BME280;33476;50.984;3.538;2023-05-16T01:55:59;102197.09;;;10.85;61.04
47716;BME280;33476;50.984;3.538;2023-05-16T01:58:28;102191.88;;;10.84;60.89
47716;BME280;33476;50.984;3.538;2023-05-16T02:01:04;102193.78;;;10.79;61.04
47716;BME280;33476;50.984;3.538;2023-05-16T02:03:33;102204.28;;;10.76;61.06
47716;BME280;33476;50.984;3.538;2023-05-16T02:05:58;102205.19;;;10.75;61.01
47716;BME280;33476;50.984;3.538;2023-05-16T02:08:25;102208.78;;;10.71;60.94
47716;BME280;33476;50.984;3.538;2023-05-16T02:10:51;102203.69;;;10.66;61.00
47716;BME280;33476;50.984;3.538;2023-05-16T02:13:16;102209.00;;;10.63;61.36
47716;BME280;33476;50.984;3.538;2023-05-16T02:15:42;102196.88;;;10.60;61.26
47716;BME280;33476;50.984;3.538;2023-05-16T02:18:08;102208.19;;;10.61;61.21
47716;BME280;33476;50.984;3.538;2023-05-16T02:20:33;102208.13;;;10.62;61.30
47716;BME280;33476;50.984;3.538;2023-05-16T02:22:59;102211.69;;;10.60;61.17
47716;BME280;33476;50.984;3.538;2023-05-16T02:25:24;102206.47;;;10.58;61.16
47716;BME280;33476;50.984;3.538;2023-05-16T02:27:50;102208.25;;;10.58;61.43
47716;BME280;33476;50.984;3.538;2023-05-16T02:30:15;102210.03;;;10.56;61.57
47716;BME280;33476;50.984;3.538;2023-05-16T02:32:41;102207.53;;;10.53;61.49
47716;BME280;33476;50.984;3.538;2023-05-16T02:35:09;102210.19;;;10.50;61.73
47716;BME280;33476;50.984;3.538;2023-05-16T02:37:35;102205.91;;;10.47;61.38
47716;BME280;33476;50.984;3.538;2023-05-16T02:40:01;102212.84;;;10.48;61.27
47716;BME280;33476;50.984;3.538;2023-05-16T02:42:26;102211.91;;;10.51;61.18
47716;BME280;33476;50.984;3.538;2023-05-16T02:44:52;102212.78;;;10.51;60.91
47716;BME280;33476;50.984;3.538;2023-05-16T02:47:17;102213.66;;;10.52;60.86
47716;BME280;33476;50.984;3.538;2023-05-16T02:49:43;102212.75;;;10.53;61.00
47716;BME280;33476;50.984;3.538;2023-05-16T02:52:08;102209.22;;;10.54;61.00
47716;BME280;33476;50.984;3.538;2023-05-16T02:54:34;102220.59;;;10.53;61.12
47716;BME280;33476;50.984;3.538;2023-05-16T02:56:59;102227.56;;;10.51;61.16
47716;BME280;33476;50.984;3.538;2023-05-16T02:59:25;102230.19;;;10.52;61.21
47716;BME280;33476;50.984;3.538;2023-05-16T03:01:50;102226.66;;;10.53;61.45
47716;BME280;33476;50.984;3.538;2023-05-16T03:04:16;102236.97;;;10.59;61.42
47716;BME280;33476;50.984;3.538;2023-05-16T03:06:42;102238.50;;;10.68;61.18
47716;BME280;33476;50.984;3.538;2023-05-16T03:09:07;102232.22;;;10.74;61.33
47716;BME280;33476;50.984;3.538;2023-05-16T03:11:33;102233.84;;;10.79;61.48
47716;BME280;33476;50.984;3.538;2023-05-16T03:13:58;102238.06;;;10.83;61.44
47716;BME280;33476;50.984;3.538;2023-05-16T03:16:24;102235.44;;;10.85;61.72
47716;BME280;33476;50.984;3.538;2023-05-16T03:18:49;102242.41;;;10.84;61.55
47716;BME280;33476;50.984;3.538;2023-05-16T03:21:15;102239.81;;;10.84;61.49
47716;BME280;33476;50.984;3.538;2023-05-16T03:23:40;102241.66;;;10.79;61.80
47716;BME280;33476;50.984;3.538;2023-05-16T03:26:06;102236.53;;;10.76;61.98
47716;BME280;33476;50.984;3.538;2023-05-16T03:28:31;102235.84;;;10.69;61.79
47716;BME280;33476;50.984;3.538;2023-05-16T03:30:57;102238.44;;;10.69;61.80
47716;BME280;33476;50.984;3.538;2023-05-16T03:33:23;102244.59;;;10.67;62.01
47716;BME280;33476;50.984;3.538;2023-05-16T03:35:48;102237.59;;;10.69;62.02
47716;BME280;33476;50.984;3.538;2023-05-16T03:38:14;102234.94;;;10.71;61.91
47716;BME280;33476;50.984;3.538;2023-05-16T03:40:41;102243.66;;;10.69;62.12
47716;BME280;33476;50.984;3.538;2023-05-16T03:43:07;102251.50;;;10.69;62.24
47716;BME280;33476;50.984;3.538;2023-05-16T03:45:32;102250.69;;;10.67;61.83
47716;BME280;33476;50.984;3.538;2023-05-16T03:47:58;102252.56;;;10.62;61.97
47716;BME280;33476;50.984;3.538;2023-05-16T03:50:23;102245.66;;;10.60;62.01
47716;BME280;33476;50.984;3.538;2023-05-16T03:52:49;102250.88;;;10.60;62.16
47716;BME280;33476;50.984;3.538;2023-05-16T03:55:18;102248.28;;;10.60;62.22
47716;BME280;33476;50.984;3.538;2023-05-16T03:57:44;102254.34;;;10.60;62.27
47716;BME280;33476;50.984;3.538;2023-05-16T04:00:10;102254.31;;;10.62;62.13
47716;BME280;33476;50.984;3.538;2023-05-16T04:02:36;102254.38;;;10.59;62.07
47716;BME280;33476;50.984;3.538;2023-05-16T04:05:02;102263.97;;;10.58;61.99
47716;BME280;33476;50.984;3.538;2023-05-16T04:07:27;102262.28;;;10.56;62.17
47716;BME280;33476;50.984;3.538;2023-05-16T04:09:53;102264.09;;;10.54;62.30
47716;BME280;33476;50.984;3.538;2023-05-16T04:12:20;102266.75;;;10.52;62.37
47716;BME280;33476;50.984;3.538;2023-05-16T04:14:45;102264.13;;;10.52;62.05
47716;BME280;33476;50.984;3.538;2023-05-16T04:17:11;102267.59;;;10.53;62.07
47716;BME280;33476;50.984;3.538;2023-05-16T04:19:37;102271.03;;;10.55;62.30
47716;BME280;33476;50.984;3.538;2023-05-16T04:22:02;102268.47;;;10.53;62.33
47716;BME280;33476;50.984;3.538;2023-05-16T04:24:27;102278.88;;;10.55;62.43
47716;BME280;33476;50.984;3.538;2023-05-16T04:26:53;102271.84;;;10.57;62.24
47716;BME280;33476;50.984;3.538;2023-05-16T04:29:19;102281.34;;;10.61;62.37
47716;BME280;33476;50.984;3.538;2023-05-16T04:31:45;102271.75;;;10.61;62.49
47716;BME280;33476;50.984;3.538;2023-05-16T04:34:11;102275.13;;;10.65;62.47
47716;BME280;33476;50.984;3.538;2023-05-16T04:36:37;102281.22;;;10.65;62.32
47716;BME280;33476;50.984;3.538;2023-05-16T04:39:02;102276.81;;;10.67;62.43
47716;BME280;33476;50.984;3.538;2023-05-16T04:41:28;102279.34;;;10.71;62.28
47716;BME280;33476;50.984;3.538;2023-05-16T04:43:54;102288.84;;;10.73;62.65
47716;BME280;33476;50.984;3.538;2023-05-16T04:46:19;102282.69;;;10.77;62.51
47716;BME280;33476;50.984;3.538;2023-05-16T04:48:45;102282.50;;;10.83;62.58
47716;BME280;33476;50.984;3.538;2023-05-16T04:51:10;102286.66;;;10.90;62.47
47716;BME280;33476;50.984;3.538;2023-05-16T04:53:36;102284.66;;;11.00;62.49
47716;BME280;33476;50.984;3.538;2023-05-16T04:56:01;102286.19;;;11.09;62.38
47716;BME280;33476;50.984;3.538;2023-05-16T04:58:27;102286.03;;;11.15;62.36
47716;BME280;33476;50.984;3.538;2023-05-16T05:00:53;102287.69;;;11.19;62.59
47716;BME280;33476;50.984;3.538;2023-05-16T05:03:19;102292.06;;;11.18;62.59
47716;BME280;33476;50.984;3.538;2023-05-16T05:05:45;102291.09;;;11.21;62.64
47716;BME280;33476;50.984;3.538;2023-05-16T05:08:12;102291.16;;;11.19;62.54
47716;BME280;33476;50.984;3.538;2023-05-16T05:10:37;102293.66;;;11.22;62.87
47716;BME280;33476;50.984;3.538;2023-05-16T05:13:03;102298.78;;;11.27;62.67
47716;BME280;33476;50.984;3.538;2023-05-16T05:15:29;102294.31;;;11.31;62.75
47716;BME280;33476;50.984;3.538;2023-05-16T05:17:54;102296.81;;;11.35;62.68
47716;BME280;33476;50.984;3.538;2023-05-16T05:20:19;102300.19;;;11.39;62.78
47716;BME280;33476;50.984;3.538;2023-05-16T05:22:45;102299.22;;;11.43;62.53
47716;BME280;33476;50.984;3.538;2023-05-16T05:25:11;102304.31;;;11.47;62.63
47716;BME280;33476;50.984;3.538;2023-05-16T05:27:36;102298.91;;;11.53;62.44
47716;BME280;33476;50.984;3.538;2023-05-16T05:30:02;102297.91;;;11.58;62.23
47716;BME280;33476;50.984;3.538;2023-05-16T05:32:28;102304.69;;;11.65;62.27
47716;BME280;33476;50.984;3.538;2023-05-16T05:34:53;102304.41;;;11.74;62.53
47716;BME280;33476;50.984;3.538;2023-05-16T05:37:19;102305.94;;;11.84;62.16
47716;BME280;33476;50.984;3.538;2023-05-16T05:39:44;102306.72;;;11.86;62.52
47716;BME280;33476;50.984;3.538;2023-05-16T05:42:10;102309.94;;;11.96;62.52
47716;BME280;33476;50.984;3.538;2023-05-16T05:44:36;102312.38;;;12.02;62.13
47716;BME280;33476;50.984;3.538;2023-05-16T05:47:03;102305.22;;;12.07;62.16
47716;BME280;33476;50.984;3.538;2023-05-16T05:49:29;102309.53;;;12.09;62.15
47716;BME280;33476;50.984;3.538;2023-05-16T05:51:55;102312.88;;;12.13;62.11
47716;BME280;33476;50.984;3.538;2023-05-16T05:54:20;102311.81;;;12.20;62.18
47716;BME280;33476;50.984;3.538;2023-05-16T05:56:46;102320.38;;;12.25;61.88
47716;BME280;33476;50.984;3.538;2023-05-16T05:59:12;102320.19;;;12.31;61.93
47716;BME280;33476;50.984;3.538;2023-05-16T06:01:37;102326.94;;;12.38;61.57
47716;BME280;33476;50.984;3.538;2023-05-16T06:04:04;102322.44;;;12.44;61.69
47716;BME280;33476;50.984;3.538;2023-05-16T06:06:29;102329.19;;;12.51;61.53
47716;BME280;33476;50.984;3.538;2023-05-16T06:08:56;102331.69;;;12.54;61.49
47716;BME280;33476;50.984;3.538;2023-05-16T06:11:21;102336.66;;;12.63;61.68
47716;BME280;33476;50.984;3.538;2023-05-16T06:13:46;102329.28;;;12.74;61.47
47716;BME280;33476;50.984;3.538;2023-05-16T06:16:12;102337.72;;;12.84;61.30
47716;BME280;33476;50.984;3.538;2023-05-16T06:18:37;102339.25;;;12.91;61.17
47716;BME280;33476;50.984;3.538;2023-05-16T06:21:03;102338.09;;;12.98;61.08
47716;BME280;33476;50.984;3.538;2023-05-16T06:23:29;102339.97;;;12.94;61.22
47716;BME280;33476;50.984;3.538;2023-05-16T06:25:55;102344.16;;;13.00;61.45
47716;BME280;33476;50.984;3.538;2023-05-16T06:28:20;102346.63;;;13.05;61.14
47716;BME280;33476;50.984;3.538;2023-05-16T06:30:46;102355.09;;;13.13;61.05
47716;BME280;33476;50.984;3.538;2023-05-16T06:33:13;102353.25;;;13.16;61.25
47716;BME280;33476;50.984;3.538;2023-05-16T06:35:39;102346.84;;;13.25;61.23
47716;BME280;33476;50.984;3.538;2023-05-16T06:38:04;102338.72;;;13.33;61.12
47716;BME280;33476;50.984;3.538;2023-05-16T06:40:30;102346.06;;;13.46;60.78
47716;BME280;33476;50.984;3.538;2023-05-16T06:42:55;102340.47;;;13.57;60.51
47716;BME280;33476;50.984;3.538;2023-05-16T06:45:22;102351.69;;;13.61;60.51
47716;BME280;33476;50.984;3.538;2023-05-16T06:47:48;102341.06;;;13.64;60.45
47716;BME280;33476;50.984;3.538;2023-05-16T06:50:13;102345.81;;;13.77;60.17
47716;BME280;33476;50.984;3.538;2023-05-16T06:52:39;102340.16;;;13.88;60.23
47716;BME280;33476;50.984;3.538;2023-05-16T06:55:04;102347.69;;;13.97;59.77
47716;BME280;33476;50.984;3.538;2023-05-16T06:57:30;102346.31;;;14.11;59.64
47716;BME280;33476;50.984;3.538;2023-05-16T06:59:55;102352.94;;;14.21;59.24
47716;BME280;33476;50.984;3.538;2023-05-16T07:02:21;102343.66;;;14.34;59.33
47716;BME280;33476;50.984;3.538;2023-05-16T07:04:46;102346.06;;;14.40;58.77
47716;BME280;33476;50.984;3.538;2023-05-16T07:07:11;102346.66;;;14.48;58.93
47716;BME280;33476;50.984;3.538;2023-05-16T07:09:37;102350.91;;;14.51;58.68
47716;BME280;33476;50.984;3.538;2023-05-16T07:12:04;102349.28;;;14.48;58.16
47716;BME280;33476;50.984;3.538;2023-05-16T07:14:29;102352.84;;;14.46;58.41
47716;BME280;33476;50.984;3.538;2023-05-16T07:16:55;102355.50;;;14.46;58.35
47716;BME280;33476;50.984;3.538;2023-05-16T07:19:20;102360.06;;;14.41;58.04
47716;BME280;33476;50.984;3.538;2023-05-16T07:21:45;102362.84;;;14.36;57.86
47716;BME280;33476;50.984;3.538;2023-05-16T07:24:11;102364.75;;;14.32;58.14
47716;BME280;33476;50.984;3.538;2023-05-16T07:26:36;102370.88;;;14.33;58.01
47716;BME280;33476;50.984;3.538;2023-05-16T07:29:02;102373.22;;;14.39;57.81
47716;BME280;33476;50.984;3.538;2023-05-16T07:31:28;102374.00;;;14.43;57.88
47716;BME280;33476;50.984;3.538;2023-05-16T07:33:54;102369.81;;;14.37;57.66
47716;BME280;33476;50.984;3.538;2023-05-16T07:36:19;102377.84;;;14.34;57.59
47716;BME280;33476;50.984;3.538;2023-05-16T07:38:45;102372.34;;;14.40;57.38
47716;BME280;33476;50.984;3.538;2023-05-16T07:41:11;102377.31;;;14.48;57.59
47716;BME280;33476;50.984;3.538;2023-05-16T07:43:36;102371.75;;;14.55;57.06
47716;BME280;33476;50.984;3.538;2023-05-16T07:46:02;102374.88;;;14.65;56.98
47716;BME280;33476;50.984;3.538;2023-05-16T07:48:27;102373.47;;;14.78;56.48
47716;BME280;33476;50.984;3.538;2023-05-16T07:50:53;102371.31;;;14.88;56.29
47716;BME280;33476;50.984;3.538;2023-05-16T07:53:19;102377.09;;;14.96;55.77
47716;BME280;33476;50.984;3.538;2023-05-16T07:55:45;102371.41;;;15.07;55.46
47716;BME280;33476;50.984;3.538;2023-05-16T07:58:11;102375.22;;;15.20;54.75
47716;BME280;33476;50.984;3.538;2023-05-16T08:00:36;102372.09;;;15.32;54.73
47716;BME280;33476;50.984;3.538;2023-05-16T08:03:02;102378.50;;;15.45;53.85
47716;BME280;33476;50.984;3.538;2023-05-16T08:05:28;102382.59;;;15.53;53.97
47716;BME280;33476;50.984;3.538;2023-05-16T08:07:53;102374.50;;;15.57;53.80
47716;BME280;33476;50.984;3.538;2023-05-16T08:10:18;102374.13;;;15.66;53.78
47716;BME280;33476;50.984;3.538;2023-05-16T08:12:44;102368.28;;;15.79;53.79
47716;BME280;33476;50.984;3.538;2023-05-16T08:15:10;102368.72;;;15.88;53.10
47716;BME280;33476;50.984;3.538;2023-05-16T08:17:35;102373.59;;;15.97;52.15
47716;BME280;33476;50.984;3.538;2023-05-16T08:20:02;102380.84;;;16.11;52.29
47716;BME280;33476;50.984;3.538;2023-05-16T08:22:28;102388.22;;;16.23;52.35
47716;BME280;33476;50.984;3.538;2023-05-16T08:24:54;102380.56;;;16.36;52.94
47716;BME280;33476;50.984;3.538;2023-05-16T08:27:25;102387.00;;;16.31;52.67
47716;BME280;33476;50.984;3.538;2023-05-16T08:29:50;102387.91;;;16.29;52.60
47716;BME280;33476;50.984;3.538;2023-05-16T08:32:15;102387.13;;;16.27;52.16
47716;BME280;33476;50.984;3.538;2023-05-16T08:34:41;102378.72;;;16.19;52.16
47716;BME280;33476;50.984;3.538;2023-05-16T08:37:06;102375.38;;;16.16;51.98
47716;BME280;33476;50.984;3.538;2023-05-16T08:39:32;102382.28;;;16.18;52.29
47716;BME280;33476;50.984;3.538;2023-05-16T08:41:57;102377.75;;;16.22;52.10
47716;BME280;33476;50.984;3.538;2023-05-16T08:44:23;102383.44;;;16.32;51.58
47716;BME280;33476;50.984;3.538;2023-05-16T08:46:52;102373.56;;;16.35;51.48
47716;BME280;33476;50.984;3.538;2023-05-16T08:49:19;102373.88;;;16.48;51.34
47716;BME280;33476;50.984;3.538;2023-05-16T08:51:46;102369.84;;;16.58;51.01
47716;BME280;33476;50.984;3.538;2023-05-16T08:54:13;102370.06;;;16.72;51.10
47716;BME280;33476;50.984;3.538;2023-05-16T08:56:40;102374.88;;;16.81;50.61
47716;BME280;33476;50.984;3.538;2023-05-16T08:59:06;102375.75;;;16.82;50.65
47716;BME280;33476;50.984;3.538;2023-05-16T09:01:32;102371.25;;;16.84;50.41
47716;BME280;33476;50.984;3.538;2023-05-16T09:03:59;102375.38;;;16.90;50.34
47716;BME280;33476;50.984;3.538;2023-05-16T09:06:26;102380.97;;;17.01;50.04
47716;BME280;33476;50.984;3.538;2023-05-16T09:08:54;102372.19;;;17.00;49.81
47716;BME280;33476;50.984;3.538;2023-05-16T09:11:20;102374.28;;;17.11;50.30
47716;BME280;33476;50.984;3.538;2023-05-16T09:13:46;102379.09;;;17.20;49.93
47716;BME280;33476;50.984;3.538;2023-05-16T09:16:19;102369.06;;;17.27;49.99
47716;BME280;33476;50.984;3.538;2023-05-16T09:18:52;102368.44;;;17.39;48.58
47716;BME280;33476;50.984;3.538;2023-05-16T09:21:19;102365.41;;;17.47;48.78
47716;BME280;33476;50.984;3.538;2023-05-16T09:23:48;102368.41;;;17.56;48.28
47716;BME280;33476;50.984;3.538;2023-05-16T09:26:14;102377.56;;;17.66;48.49
47716;BME280;33476;50.984;3.538;2023-05-16T09:28:40;102378.66;;;17.80;48.21
47716;BME280;33476;50.984;3.538;2023-05-16T09:31:19;102379.75;;;17.76;47.67
47716;BME280;33476;50.984;3.538;2023-05-16T09:33:45;102373.88;;;17.86;47.85
47716;BME280;33476;50.984;3.538;2023-05-16T09:36:10;102379.38;;;17.99;48.49
47716;BME280;33476;50.984;3.538;2023-05-16T09:38:36;102374.75;;;18.03;47.90
47716;BME280;33476;50.984;3.538;2023-05-16T09:41:02;102384.56;;;18.01;47.78
47716;BME280;33476;50.984;3.538;2023-05-16T09:43:27;102375.59;;;18.03;47.77
47716;BME280;33476;50.984;3.538;2023-05-16T09:45:52;102375.47;;;18.06;46.35
47716;BME280;33476;50.984;3.538;2023-05-16T09:48:20;102382.88;;;18.00;46.38
47716;BME280;33476;50.984;3.538;2023-05-16T09:50:51;102378.34;;;18.02;46.28
47716;BME280;33476;50.984;3.538;2023-05-16T09:53:23;102375.38;;;18.08;46.40
47716;BME280;33476;50.984;3.538;2023-05-16T09:55:59;102379.47;;;18.13;46.55
47716;BME280;33476;50.984;3.538;2023-05-16T09:58:32;102375.72;;;18.17;46.21
47716;BME280;33476;50.984;3.538;2023-05-16T10:00:57;102371.03;;;18.22;45.87
47716;BME280;33476;50.984;3.538;2023-05-16T10:03:27;102377.50;;;18.33;45.54
47716;BME280;33476;50.984;3.538;2023-05-16T10:05:53;102374.53;;;18.39;45.53
47716;BME280;33476;50.984;3.538;2023-05-16T10:08:25;102378.78;;;18.41;45.40
47716;BME280;33476;50.984;3.538;2023-05-16T10:10:55;102372.97;;;18.50;45.63
47716;BME280;33476;50.984;3.538;2023-05-16T10:13:22;102384.16;;;18.56;45.60
47716;BME280;33476;50.984;3.538;2023-05-16T10:15:49;102384.66;;;18.62;44.71
47716;BME280;33476;50.984;3.538;2023-05-16T10:18:20;102380.13;;;18.64;45.00
47716;BME280;33476;50.984;3.538;2023-05-16T10:20:48;102380.59;;;18.72;44.51
47716;BME280;33476;50.984;3.538;2023-05-16T10:23:18;102382.09;;;18.76;44.30
47716;BME280;33476;50.984;3.538;2023-05-16T10:25:45;102370.66;;;18.76;44.64
47716;BME280;33476;50.984;3.538;2023-05-16T10:28:12;102377.81;;;18.90;45.11
47716;BME280;33476;50.984;3.538;2023-05-16T10:30:43;102373.19;;;18.93;44.91
47716;BME280;33476;50.984;3.538;2023-05-16T10:33:12;102369.53;;;19.10;45.01
47716;BME280;33476;50.984;3.538;2023-05-16T10:35:38;102378.94;;;19.16;44.46
47716;BME280;33476;50.984;3.538;2023-05-16T10:38:04;102375.31;;;19.17;44.24
47716;BME280;33476;50.984;3.538;2023-05-16T10:40:31;102379.31;;;19.24;44.66
47716;BME280;33476;50.984;3.538;2023-05-16T10:43:00;102371.56;;;19.21;43.98
47716;BME280;33476;50.984;3.538;2023-05-16T10:45:27;102373.06;;;19.25;43.27
47716;BME280;33476;50.984;3.538;2023-05-16T10:47:57;102380.38;;;19.21;43.41
47716;BME280;33476;50.984;3.538;2023-05-16T10:50:56;102384.75;;;19.36;43.88
47716;BME280;33476;50.984;3.538;2023-05-16T10:53:28;102389.75;;;19.41;42.65
47716;BME280;33476;50.984;3.538;2023-05-16T10:56:13;102381.31;;;19.34;42.52
47716;BME280;33476;50.984;3.538;2023-05-16T10:58:40;102380.84;;;19.42;42.63
47716;BME280;33476;50.984;3.538;2023-05-16T11:01:28;102382.00;;;19.38;42.75
47716;BME280;33476;50.984;3.538;2023-05-16T11:11:45;102389.00;;;19.39;42.28
47716;BME280;33476;50.984;3.538;2023-05-16T11:16:51;102395.34;;;19.51;41.48
47716;BME280;33476;50.984;3.538;2023-05-16T11:22:12;102391.75;;;19.52;41.99
47716;BME280;33476;50.984;3.538;2023-05-16T11:25:04;102390.34;;;19.46;41.63
47716;BME280;33476;50.984;3.538;2023-05-16T11:27:33;102385.78;;;19.48;41.61
47716;BME280;33476;50.984;3.538;2023-05-16T11:30:09;102394.22;;;19.55;41.44
47716;BME280;33476;50.984;3.538;2023-05-16T11:32:37;102395.41;;;19.65;41.60
47716;BME280;33476;50.984;3.538;2023-05-16T11:35:11;102384.59;;;19.68;41.83
47716;BME280;33476;50.984;3.538;2023-05-16T11:37:37;102386.13;;;19.72;41.84
47716;BME280;33476;50.984;3.538;2023-05-16T11:40:07;102378.94;;;19.74;40.96
47716;BME280;33476;50.984;3.538;2023-05-16T11:47:40;102382.31;;;19.76;41.24
47716;BME280;33476;50.984;3.538;2023-05-16T11:50:16;102392.75;;;19.65;40.54
47716;BME280;33476;50.984;3.538;2023-05-16T11:52:44;102381.88;;;19.70;40.17
47716;BME280;33476;50.984;3.538;2023-05-16T11:55:10;102383.09;;;19.78;40.70
47716;BME280;33476;50.984;3.538;2023-05-16T11:57:39;102375.81;;;19.82;40.35
47716;BME280;33476;50.984;3.538;2023-05-16T12:00:14;102377.03;;;19.76;40.30
47716;BME280;33476;50.984;3.538;2023-05-16T12:02:41;102386.88;;;19.74;40.86
47716;BME280;33476;50.984;3.538;2023-05-16T12:05:08;102379.03;;;19.73;40.37
47716;BME280;33476;50.984;3.538;2023-05-16T12:07:37;102379.88;;;19.73;40.20
47716;BME280;33476;50.984;3.538;2023-05-16T12:10:10;102378.19;;;19.72;40.51
47716;BME280;33476;50.984;3.538;2023-05-16T12:12:37;102386.50;;;19.80;40.75
47716;BME280;33476;50.984;3.538;2023-05-16T12:15:04;102376.28;;;19.74;40.11
47716;BME280;33476;50.984;3.538;2023-05-16T12:17:37;102375.53;;;19.72;40.65
47716;BME280;33476;50.984;3.538;2023-05-16T12:20:04;102381.31;;;19.79;40.75
47716;BME280;33476;50.984;3.538;2023-05-16T12:22:31;102383.19;;;19.77;40.06
47716;BME280;33476;50.984;3.538;2023-05-16T12:25:19;102387.19;;;19.70;40.26
47716;BME280;33476;50.984;3.538;2023-05-16T12:27:45;102374.78;;;19.70;40.65
47716;BME280;33476;50.984;3.538;2023-05-16T12:30:11;102383.59;;;19.71;39.68
47716;BME280;33476;50.984;3.538;2023-05-16T12:32:37;102389.53;;;19.74;39.59
47716;BME280;33476;50.984;3.538;2023-05-16T12:35:02;102387.72;;;19.75;39.50
47716;BME280;33476;50.984;3.538;2023-05-16T12:37:28;102382.44;;;19.75;40.31
47716;BME280;33476;50.984;3.538;2023-05-16T12:39:59;102377.72;;;19.80;40.93
47716;BME280;33476;50.984;3.538;2023-05-16T12:42:26;102377.97;;;19.89;40.97
47716;BME280;33476;50.984;3.538;2023-05-16T12:44:55;102386.41;;;19.96;40.51
47716;BME280;33476;50.984;3.538;2023-05-16T12:47:20;102385.16;;;20.02;40.90
47716;BME280;33476;50.984;3.538;2023-05-16T12:49:46;102376.91;;;20.06;40.58
47716;BME280;33476;50.984;3.538;2023-05-16T12:52:19;102379.78;;;20.03;40.23
47716;BME280;33476;50.984;3.538;2023-05-16T12:54:46;102378.81;;;20.04;39.99
47716;BME280;33476;50.984;3.538;2023-05-16T12:57:11;102374.16;;;20.08;39.79
47716;BME280;33476;50.984;3.538;2023-05-16T12:59:37;102374.91;;;20.10;39.83
47716;BME280;33476;50.984;3.538;2023-05-16T13:02:02;102380.03;;;20.13;39.78
47716;BME280;33476;50.984;3.538;2023-05-16T13:04:28;102378.41;;;20.10;38.82
47716;BME280;33476;50.984;3.538;2023-05-16T13:06:54;102374.38;;;20.05;38.98
47716;BME280;33476;50.984;3.538;2023-05-16T13:09:20;102377.97;;;20.04;39.45
47716;BME280;33476;50.984;3.538;2023-05-16T13:11:45;102370.75;;;20.06;39.19